Terminal Aerodrome Forecast
Issued by NWS Atlanta, GA

Home | Current Version | Previous Version | Text Only | Print | Product List | Glossary On
Versions: 1 2 3 4 5 6 7 8 9 10 11 12 13 14 15 16 17 18
000
FTUS42 KFFC 282344
TAFMCN
TAF
KMCN 282344Z 2900/2924 10006KT P6SM SCT050
     FM290500 10004KT P6SM BKN015
     FM290900 10004KT 5SM BR BKN008
     FM291400 10008KT P6SM VCSH BKN015 OVC035 PROB30 2914/2918 6SM
      -SHRA BKN010
     FM291800 10008KT 6SM -SHRA BKN030 OVC080=

USA.gov is the U.S. government's official web portal to all federal, state and local government web resources and services.